sensor_id;sensor_type;location;lat;lon;timestamp;temperature;humidity
29241;DHT22;16268;49.880;8.648;2023-02-15T00:01:08;2.60;99.90
29241;DHT22;16268;49.880;8.648;2023-02-15T00:03:34;2.50;99.90
29241;DHT22;16268;49.880;8.648;2023-02-15T00:06:00;2.60;99.90
29241;DHT22;16268;49.880;8.648;2023-02-15T00:08:26;2.60;99.90
29241;DHT22;16268;49.880;8.648;2023-02-15T00:10:51;2.70;99.90
29241;DHT22;16268;49.880;8.648;2023-02-15T00:13:17;2.70;99.90
29241;DHT22;16268;49.880;8.648;2023-02-15T00:15:42;2.70;99.90
29241;DHT22;16268;49.880;8.648;2023-02-15T00:18:08;2.60;99.90
29241;DHT22;16268;49.880;8.648;2023-02-15T00:20:34;2.60;99.90
29241;DHT22;16268;49.880;8.648;2023-02-15T00:22:59;2.70;99.90
29241;DHT22;16268;49.880;8.648;2023-02-15T00:25:25;2.70;99.90
29241;DHT22;16268;49.880;8.648;2023-02-15T00:27:50;2.60;99.90
29241;DHT22;16268;49.880;8.648;2023-02-15T00:30:16;2.50;99.90
29241;DHT22;16268;49.880;8.648;2023-02-15T00:32:42;2.50;99.90
29241;DHT22;16268;49.880;8.648;2023-02-15T00:35:07;2.50;99.90
29241;DHT22;16268;49.880;8.648;2023-02-15T00:37:33;2.50;99.90
29241;DHT22;16268;49.880;8.648;2023-02-15T00:39:59;2.50;99.90
29241;DHT22;16268;49.880;8.648;2023-02-15T00:42:24;2.40;99.90
29241;DHT22;16268;49.880;8.648;2023-02-15T00:44:50;2.40;99.90
29241;DHT22;16268;49.880;8.648;2023-02-15T00:47:16;2.30;99.90
29241;DHT22;16268;49.880;8.648;2023-02-15T00:49:41;2.30;99.90
29241;DHT22;16268;49.880;8.648;2023-02-15T00:52:07;2.30;99.90
29241;DHT22;16268;49.880;8.648;2023-02-15T00:54:32;2.40;99.90
29241;DHT22;16268;49.880;8.648;2023-02-15T00:56:59;2.40;99.90
29241;DHT22;16268;49.880;8.648;2023-02-15T00:59:25;2.30;99.90
29241;DHT22;16268;49.880;8.648;2023-02-15T01:01:51;2.20;99.90
29241;DHT22;16268;49.880;8.648;2023-02-15T01:04:16;2.30;99.90
29241;DHT22;16268;49.880;8.648;2023-02-15T01:06:42;2.30;99.90
29241;DHT22;16268;49.880;8.648;2023-02-15T01:09:07;2.30;99.90
29241;DHT22;16268;49.880;8.648;2023-02-15T01:11:33;2.20;99.90
29241;DHT22;16268;49.880;8.648;2023-02-15T01:13:58;2.10;99.90
29241;DHT22;16268;49.880;8.648;2023-02-15T01:16:26;2.10;99.90
29241;DHT22;16268;49.880;8.648;2023-02-15T01:18:52;2.20;99.90
29241;DHT22;16268;49.880;8.648;2023-02-15T01:21:22;2.20;99.90
29241;DHT22;16268;49.880;8.648;2023-02-15T01:23:48;2.20;99.90
29241;DHT22;16268;49.880;8.648;2023-02-15T01:26:14;2.30;99.90
29241;DHT22;16268;49.880;8.648;2023-02-15T01:28:40;2.30;99.90
29241;DHT22;16268;49.880;8.648;2023-02-15T01:31:08;2.30;99.90
29241;DHT22;16268;49.880;8.648;2023-02-15T01:33:35;2.30;99.90
29241;DHT22;16268;49.880;8.648;2023-02-15T01:36:01;2.30;99.90
29241;DHT22;16268;49.880;8.648;2023-02-15T01:38:27;2.30;99.90
29241;DHT22;16268;49.880;8.648;2023-02-15T01:40:53;2.30;99.90
29241;DHT22;16268;49.880;8.648;2023-02-15T01:43:19;2.20;99.90
29241;DHT22;16268;49.880;8.648;2023-02-15T01:45:47;2.30;99.90
29241;DHT22;16268;49.880;8.648;2023-02-15T01:48:22;2.20;99.90
29241;DHT22;16268;49.880;8.648;2023-02-15T01:50:54;2.20;99.90
29241;DHT22;16268;49.880;8.648;2023-02-15T01:53:25;2.20;99.90
29241;DHT22;16268;49.880;8.648;2023-02-15T01:56:03;2.10;99.90
29241;DHT22;16268;49.880;8.648;2023-02-15T01:58:32;2.20;99.90
29241;DHT22;16268;49.880;8.648;2023-02-15T02:01:00;2.10;99.90
29241;DHT22;16268;49.880;8.648;2023-02-15T02:03:36;2.30;99.90
29241;DHT22;16268;49.880;8.648;2023-02-15T02:06:04;2.40;99.90
29241;DHT22;16268;49.880;8.648;2023-02-15T02:08:30;2.50;99.90
29241;DHT22;16268;49.880;8.648;2023-02-15T02:10:55;2.60;99.90
29241;DHT22;16268;49.880;8.648;2023-02-15T02:13:21;2.60;99.90
29241;DHT22;16268;49.880;8.648;2023-02-15T02:16:27;2.60;99.90
29241;DHT22;16268;49.880;8.648;2023-02-15T02:24:28;2.80;99.90
29241;DHT22;16268;49.880;8.648;2023-02-15T02:27:40;2.70;99.90
29241;DHT22;16268;49.880;8.648;2023-02-15T02:30:26;2.80;99.90
29241;DHT22;16268;49.880;8.648;2023-02-15T02:37:59;2.80;99.90
29241;DHT22;16268;49.880;8.648;2023-02-15T02:43:21;2.80;99.90
29241;DHT22;16268;49.880;8.648;2023-02-15T02:45:56;2.80;99.90
29241;DHT22;16268;49.880;8.648;2023-02-15T02:48:25;2.80;99.90
29241;DHT22;16268;49.880;8.648;2023-02-15T02:50:52;2.80;99.90
29241;DHT22;16268;49.880;8.648;2023-02-15T02:53:18;2.70;99.90
29241;DHT22;16268;49.880;8.648;2023-02-15T02:55:50;2.80;99.90
29241;DHT22;16268;49.880;8.648;2023-02-15T02:58:24;2.70;99.90
29241;DHT22;16268;49.880;8.648;2023-02-15T03:00:59;2.80;99.90
29241;DHT22;16268;49.880;8.648;2023-02-15T03:03:38;2.70;99.90
29241;DHT22;16268;49.880;8.648;2023-02-15T03:06:18;2.80;99.90
29241;DHT22;16268;49.880;8.648;2023-02-15T03:09:00;2.70;99.90
29241;DHT22;16268;49.880;8.648;2023-02-15T03:11:26;2.80;99.90
29241;DHT22;16268;49.880;8.648;2023-02-15T03:13:52;2.80;99.90
29241;DHT22;16268;49.880;8.648;2023-02-15T03:16:19;2.80;99.90
29241;DHT22;16268;49.880;8.648;2023-02-15T03:19:06;2.80;99.90
29241;DHT22;16268;49.880;8.648;2023-02-15T03:24:09;2.70;99.90
29241;DHT22;16268;49.880;8.648;2023-02-15T03:26:36;2.80;99.90
29241;DHT22;16268;49.880;8.648;2023-02-15T03:29:03;2.80;99.90
29241;DHT22;16268;49.880;8.648;2023-02-15T03:31:32;2.80;99.90
29241;DHT22;16268;49.880;8.648;2023-02-15T03:34:03;2.90;99.90
29241;DHT22;16268;49.880;8.648;2023-02-15T03:39:23;2.90;99.90
29241;DHT22;16268;49.880;8.648;2023-02-15T03:42:17;2.90;99.90
29241;DHT22;16268;49.880;8.648;2023-02-15T03:45:08;2.90;99.90
29241;DHT22;16268;49.880;8.648;2023-02-15T03:47:41;2.80;99.90
29241;DHT22;16268;49.880;8.648;2023-02-15T03:50:13;2.80;99.90
29241;DHT22;16268;49.880;8.648;2023-02-15T03:52:59;2.70;99.90
29241;DHT22;16268;49.880;8.648;2023-02-15T03:55:27;2.70;99.90
29241;DHT22;16268;49.880;8.648;2023-02-15T03:57:53;2.60;99.90
29241;DHT22;16268;49.880;8.648;2023-02-15T04:00:42;2.60;99.90
29241;DHT22;16268;49.880;8.648;2023-02-15T04:03:33;2.60;99.90
29241;DHT22;16268;49.880;8.648;2023-02-15T04:06:02;2.60;99.90
29241;DHT22;16268;49.880;8.648;2023-02-15T04:08:28;2.60;99.90
29241;DHT22;16268;49.880;8.648;2023-02-15T04:11:12;2.50;99.90
29241;DHT22;16268;49.880;8.648;2023-02-15T04:13:37;2.50;99.90
29241;DHT22;16268;49.880;8.648;2023-02-15T04:16:03;2.40;99.90
29241;DHT22;16268;49.880;8.648;2023-02-15T04:18:34;2.50;99.90
29241;DHT22;16268;49.880;8.648;2023-02-15T04:21:19;2.40;99.90
29241;DHT22;16268;49.880;8.648;2023-02-15T04:24:04;2.40;99.90
29241;DHT22;16268;49.880;8.648;2023-02-15T04:26:48;2.50;99.90
29241;DHT22;16268;49.880;8.648;2023-02-15T04:29:15;2.50;99.90
29241;DHT22;16268;49.880;8.648;2023-02-15T04:31:41;2.50;99.90
29241;DHT22;16268;49.880;8.648;2023-02-15T04:34:08;2.60;99.90
29241;DHT22;16268;49.880;8.648;2023-02-15T04:36:33;2.50;99.90
29241;DHT22;16268;49.880;8.648;2023-02-15T04:38:59;2.50;99.90
29241;DHT22;16268;49.880;8.648;2023-02-15T04:41:24;2.40;99.90
29241;DHT22;16268;49.880;8.648;2023-02-15T04:43:50;2.40;99.90
29241;DHT22;16268;49.880;8.648;2023-02-15T04:46:15;2.50;99.90
29241;DHT22;16268;49.880;8.648;2023-02-15T04:48:41;2.60;99.90
29241;DHT22;16268;49.880;8.648;2023-02-15T04:51:07;2.60;99.90
29241;DHT22;16268;49.880;8.648;2023-02-15T04:53:33;2.60;99.90
29241;DHT22;16268;49.880;8.648;2023-02-15T04:55:59;2.70;99.90
29241;DHT22;16268;49.880;8.648;2023-02-15T04:58:24;2.60;99.90
29241;DHT22;16268;49.880;8.648;2023-02-15T05:00:49;2.60;99.90
29241;DHT22;16268;49.880;8.648;2023-02-15T05:03:15;2.70;99.90
29241;DHT22;16268;49.880;8.648;2023-02-15T05:05:40;2.60;99.90
29241;DHT22;16268;49.880;8.648;2023-02-15T05:08:06;2.60;99.90
29241;DHT22;16268;49.880;8.648;2023-02-15T05:10:32;2.60;99.90
29241;DHT22;16268;49.880;8.648;2023-02-15T05:12:57;2.60;99.90
29241;DHT22;16268;49.880;8.648;2023-02-15T05:15:23;2.60;99.90
29241;DHT22;16268;49.880;8.648;2023-02-15T05:17:48;2.60;99.90
29241;DHT22;16268;49.880;8.648;2023-02-15T05:20:14;2.50;99.90
29241;DHT22;16268;49.880;8.648;2023-02-15T05:22:40;2.50;99.90
29241;DHT22;16268;49.880;8.648;2023-02-15T05:25:07;2.40;99.90
29241;DHT22;16268;49.880;8.648;2023-02-15T05:27:51;2.40;99.90
29241;DHT22;16268;49.880;8.648;2023-02-15T05:30:35;2.20;99.90
29241;DHT22;16268;49.880;8.648;2023-02-15T05:33:01;2.20;99.90
29241;DHT22;16268;49.880;8.648;2023-02-15T05:35:27;2.20;99.90
29241;DHT22;16268;49.880;8.648;2023-02-15T05:37:52;2.20;99.90
29241;DHT22;16268;49.880;8.648;2023-02-15T05:40:18;2.10;99.90
29241;DHT22;16268;49.880;8.648;2023-02-15T05:42:44;2.10;99.90
29241;DHT22;16268;49.880;8.648;2023-02-15T05:45:09;2.00;99.90
29241;DHT22;16268;49.880;8.648;2023-02-15T05:47:35;2.00;99.90
29241;DHT22;16268;49.880;8.648;2023-02-15T05:50:00;2.10;99.90
29241;DHT22;16268;49.880;8.648;2023-02-15T05:52:26;2.10;99.90
29241;DHT22;16268;49.880;8.648;2023-02-15T05:54:51;2.10;99.90
29241;DHT22;16268;49.880;8.648;2023-02-15T05:57:17;2.10;99.90
29241;DHT22;16268;49.880;8.648;2023-02-15T05:59:42;2.10;99.90
29241;DHT22;16268;49.880;8.648;2023-02-15T06:02:08;2.10;99.90
29241;DHT22;16268;49.880;8.648;2023-02-15T06:04:33;2.00;99.90
29241;DHT22;16268;49.880;8.648;2023-02-15T06:06:59;2.00;99.90
29241;DHT22;16268;49.880;8.648;2023-02-15T06:09:24;1.90;99.90
29241;DHT22;16268;49.880;8.648;2023-02-15T06:11:50;1.80;99.90
29241;DHT22;16268;49.880;8.648;2023-02-15T06:14:16;1.80;99.90
29241;DHT22;16268;49.880;8.648;2023-02-15T06:16:41;1.80;99.90
29241;DHT22;16268;49.880;8.648;2023-02-15T06:19:07;1.80;99.90
29241;DHT22;16268;49.880;8.648;2023-02-15T06:21:32;1.80;99.90
29241;DHT22;16268;49.880;8.648;2023-02-15T06:23:58;1.70;99.90
29241;DHT22;16268;49.880;8.648;2023-02-15T06:26:23;1.70;99.90
29241;DHT22;16268;49.880;8.648;2023-02-15T06:28:49;1.70;99.90
29241;DHT22;16268;49.880;8.648;2023-02-15T06:31:14;1.70;99.90
29241;DHT22;16268;49.880;8.648;2023-02-15T06:33:40;1.60;99.90
29241;DHT22;16268;49.880;8.648;2023-02-15T06:36:06;1.70;99.90
29241;DHT22;16268;49.880;8.648;2023-02-15T06:38:32;1.70;99.90
29241;DHT22;16268;49.880;8.648;2023-02-15T06:40:57;1.70;99.90
29241;DHT22;16268;49.880;8.648;2023-02-15T06:43:23;1.60;99.90
29241;DHT22;16268;49.880;8.648;2023-02-15T06:45:48;1.70;99.90
29241;DHT22;16268;49.880;8.648;2023-02-15T06:48:14;1.70;99.90
29241;DHT22;16268;49.880;8.648;2023-02-15T06:50:39;1.80;99.90
29241;DHT22;16268;49.880;8.648;2023-02-15T06:53:05;1.80;99.90
29241;DHT22;16268;49.880;8.648;2023-02-15T06:55:30;1.70;99.90
29241;DHT22;16268;49.880;8.648;2023-02-15T06:57:56;1.70;99.90
29241;DHT22;16268;49.880;8.648;2023-02-15T07:00:22;1.80;99.90
29241;DHT22;16268;49.880;8.648;2023-02-15T07:02:53;1.60;99.90
29241;DHT22;16268;49.880;8.648;2023-02-15T07:05:21;1.50;99.90
29241;DHT22;16268;49.880;8.648;2023-02-15T07:07:46;1.60;99.90
29241;DHT22;16268;49.880;8.648;2023-02-15T07:10:12;1.60;99.90
29241;DHT22;16268;49.880;8.648;2023-02-15T07:12:37;1.70;99.90
29241;DHT22;16268;49.880;8.648;2023-02-15T07:15:16;1.80;99.90
29241;DHT22;16268;49.880;8.648;2023-02-15T07:17:42;2.00;99.90
29241;DHT22;16268;49.880;8.648;2023-02-15T07:20:17;2.10;99.90
29241;DHT22;16268;49.880;8.648;2023-02-15T07:22:43;2.30;99.90
29241;DHT22;16268;49.880;8.648;2023-02-15T07:25:10;2.30;99.90
29241;DHT22;16268;49.880;8.648;2023-02-15T07:27:36;2.40;99.90
29241;DHT22;16268;49.880;8.648;2023-02-15T07:30:03;2.40;99.90
29241;DHT22;16268;49.880;8.648;2023-02-15T07:32:31;2.60;99.90
29241;DHT22;16268;49.880;8.648;2023-02-15T07:34:57;2.50;99.90
29241;DHT22;16268;49.880;8.648;2023-02-15T07:37:23;2.50;99.90
29241;DHT22;16268;49.880;8.648;2023-02-15T07:39:49;2.60;99.90
29241;DHT22;16268;49.880;8.648;2023-02-15T07:42:14;2.60;99.90
29241;DHT22;16268;49.880;8.648;2023-02-15T07:44:40;2.50;99.90
29241;DHT22;16268;49.880;8.648;2023-02-15T07:47:05;2.60;99.90
29241;DHT22;16268;49.880;8.648;2023-02-15T07:49:31;2.60;99.90
29241;DHT22;16268;49.880;8.648;2023-02-15T07:51:57;2.60;99.90
29241;DHT22;16268;49.880;8.648;2023-02-15T07:54:22;2.60;99.90
29241;DHT22;16268;49.880;8.648;2023-02-15T07:56:48;2.50;99.90
29241;DHT22;16268;49.880;8.648;2023-02-15T07:59:14;2.50;99.90
29241;DHT22;16268;49.880;8.648;2023-02-15T08:01:39;2.50;99.90
29241;DHT22;16268;49.880;8.648;2023-02-15T08:04:07;2.60;99.90
29241;DHT22;16268;49.880;8.648;2023-02-15T08:06:34;2.80;99.90
29241;DHT22;16268;49.880;8.648;2023-02-15T08:09:03;2.70;99.90
29241;DHT22;16268;49.880;8.648;2023-02-15T08:11:30;2.80;99.90
29241;DHT22;16268;49.880;8.648;2023-02-15T08:14:11;2.80;99.90
29241;DHT22;16268;49.880;8.648;2023-02-15T08:16:38;2.80;99.90
29241;DHT22;16268;49.880;8.648;2023-02-15T08:19:27;2.80;99.90
29241;DHT22;16268;49.880;8.648;2023-02-15T08:21:53;2.90;99.90
29241;DHT22;16268;49.880;8.648;2023-02-15T08:24:21;2.90;99.90
29241;DHT22;16268;49.880;8.648;2023-02-15T08:26:49;2.90;99.90
29241;DHT22;16268;49.880;8.648;2023-02-15T08:29:16;3.00;99.90
29241;DHT22;16268;49.880;8.648;2023-02-15T08:31:43;3.10;99.90
29241;DHT22;16268;49.880;8.648;2023-02-15T08:34:10;3.20;99.90
29241;DHT22;16268;49.880;8.648;2023-02-15T08:36:37;3.20;99.90
29241;DHT22;16268;49.880;8.648;2023-02-15T08:39:04;3.30;99.90
29241;DHT22;16268;49.880;8.648;2023-02-15T08:41:34;3.30;99.90
29241;DHT22;16268;49.880;8.648;2023-02-15T08:44:03;3.10;99.90
29241;DHT22;16268;49.880;8.648;2023-02-15T08:46:33;3.00;99.90
29241;DHT22;16268;49.880;8.648;2023-02-15T08:48:59;3.10;99.90
29241;DHT22;16268;49.880;8.648;2023-02-15T08:51:28;3.10;99.90
29241;DHT22;16268;49.880;8.648;2023-02-15T08:53:59;3.10;99.90
29241;DHT22;16268;49.880;8.648;2023-02-15T08:56:27;3.10;99.90
29241;DHT22;16268;49.880;8.648;2023-02-15T08:58:54;3.10;99.90
29241;DHT22;16268;49.880;8.648;2023-02-15T09:01:23;3.20;99.90
29241;DHT22;16268;49.880;8.648;2023-02-15T09:03:51;3.20;99.90
29241;DHT22;16268;49.880;8.648;2023-02-15T09:06:20;3.20;99.90
29241;DHT22;16268;49.880;8.648;2023-02-15T09:08:46;3.00;99.90
29241;DHT22;16268;49.880;8.648;2023-02-15T09:11:17;3.00;99.90
29241;DHT22;16268;49.880;8.648;2023-02-15T09:13:49;2.90;99.90
29241;DHT22;16268;49.880;8.648;2023-02-15T09:16:15;3.00;99.90
29241;DHT22;16268;49.880;8.648;2023-02-15T09:18:44;3.10;99.90
29241;DHT22;16268;49.880;8.648;2023-02-15T09:21:16;3.10;99.90
29241;DHT22;16268;49.880;8.648;2023-02-15T09:23:47;3.20;99.90
29241;DHT22;16268;49.880;8.648;2023-02-15T09:26:15;3.30;99.90
29241;DHT22;16268;49.880;8.648;2023-02-15T09:28:42;3.40;99.90
29241;DHT22;16268;49.880;8.648;2023-02-15T09:31:16;3.50;99.90
29241;DHT22;16268;49.880;8.648;2023-02-15T09:33:44;3.50;99.90
29241;DHT22;16268;49.880;8.648;2023-02-15T09:36:19;3.60;99.90
29241;DHT22;16268;49.880;8.648;2023-02-15T09:38:47;3.70;99.90
29241;DHT22;16268;49.880;8.648;2023-02-15T09:46:33;3.00;99.90
29241;DHT22;16268;49.880;8.648;2023-02-15T09:49:26;2.90;99.90
29241;DHT22;16268;49.880;8.648;2023-02-15T09:52:10;3.10;99.90
29241;DHT22;16268;49.880;8.648;2023-02-15T09:57:27;3.20;99.90
29241;DHT22;16268;49.880;8.648;2023-02-15T10:02:51;3.20;99.90
29241;DHT22;16268;49.880;8.648;2023-02-15T10:08:10;3.40;99.90
29241;DHT22;16268;49.880;8.648;2023-02-15T10:11:02;3.60;99.90
29241;DHT22;16268;49.880;8.648;2023-02-15T10:16:49;3.90;99.90
29241;DHT22;16268;49.880;8.648;2023-02-15T10:27:22;4.20;99.90
29241;DHT22;16268;49.880;8.648;2023-02-15T10:30:09;4.20;99.90
29241;DHT22;16268;49.880;8.648;2023-02-15T10:32:48;4.20;99.90
29241;DHT22;16268;49.880;8.648;2023-02-15T10:40:46;4.20;99.90
29241;DHT22;16268;49.880;8.648;2023-02-15T10:43:32;4.30;99.90
29241;DHT22;16268;49.880;8.648;2023-02-15T10:52:11;4.00;99.90
29241;DHT22;16268;49.880;8.648;2023-02-15T10:54:54;4.10;99.90
29241;DHT22;16268;49.880;8.648;2023-02-15T10:57:25;4.10;99.90
29241;DHT22;16268;49.880;8.648;2023-02-15T11:00:15;4.00;99.90
29241;DHT22;16268;49.880;8.648;2023-02-15T11:08:20;3.90;99.90
29241;DHT22;16268;49.880;8.648;2023-02-15T11:10:51;4.00;99.90
29241;DHT22;16268;49.880;8.648;2023-02-15T11:13:19;4.00;99.90
29241;DHT22;16268;49.880;8.648;2023-02-15T11:15:55;4.20;99.90
29241;DHT22;16268;49.880;8.648;2023-02-15T11:23:54;4.30;99.90
29241;DHT22;16268;49.880;8.648;2023-02-15T11:26:33;4.20;99.90
29241;DHT22;16268;49.880;8.648;2023-02-15T11:29:22;4.20;99.90
29241;DHT22;16268;49.880;8.648;2023-02-15T11:31:57;4.30;99.90
29241;DHT22;16268;49.880;8.648;2023-02-15T11:37:13;4.20;99.90
29241;DHT22;16268;49.880;8.648;2023-02-15T11:39:42;4.30;99.90
29241;DHT22;16268;49.880;8.648;2023-02-15T11:42:14;4.40;99.90
29241;DHT22;16268;49.880;8.648;2023-02-15T11:44:52;4.50;99.90
29241;DHT22;16268;49.880;8.648;2023-02-15T11:47:19;4.50;99.90
29241;DHT22;16268;49.880;8.648;2023-02-15T11:49:45;4.50;99.90
29241;DHT22;16268;49.880;8.648;2023-02-15T11:52:13;4.50;99.90
29241;DHT22;16268;49.880;8.648;2023-02-15T11:54:45;4.30;99.90
29241;DHT22;16268;49.880;8.648;2023-02-15T11:57:14;4.20;99.90
29241;DHT22;16268;49.880;8.648;2023-02-15T11:59:44;4.20;99.90
29241;DHT22;16268;49.880;8.648;2023-02-15T12:02:17;4.10;99.90
29241;DHT22;16268;49.880;8.648;2023-02-15T12:04:54;4.20;99.90
29241;DHT22;16268;49.880;8.648;2023-02-15T12:07:28;4.30;99.90
29241;DHT22;16268;49.880;8.648;2023-02-15T12:10:57;4.20;99.90
29241;DHT22;16268;49.880;8.648;2023-02-15T12:13:15;4.30;99.90
29241;DHT22;16268;49.880;8.648;2023-02-15T12:15:46;4.30;99.90
29241;DHT22;16268;49.880;8.648;2023-02-15T12:21:12;4.30;99.90
29241;DHT22;16268;49.880;8.648;2023-02-15T12:23:51;4.40;99.90
29241;DHT22;16268;49.880;8.648;2023-02-15T12:26:32;4.40;99.90
29241;DHT22;16268;49.880;8.648;2023-02-15T12:29:00;4.50;99.90
29241;DHT22;16268;49.880;8.648;2023-02-15T12:31:39;4.50;99.90
29241;DHT22;16268;49.880;8.648;2023-02-15T12:34:20;4.60;99.90
29241;DHT22;16268;49.880;8.648;2023-02-15T12:36:49;4.80;99.90
29241;DHT22;16268;49.880;8.648;2023-02-15T12:39:19;4.90;99.90
29241;DHT22;16268;49.880;8.648;2023-02-15T12:44:26;5.30;99.90
29241;DHT22;16268;49.880;8.648;2023-02-15T12:46:59;5.30;99.90
29241;DHT22;16268;49.880;8.648;2023-02-15T12:49:27;5.50;99.90
29241;DHT22;16268;49.880;8.648;2023-02-15T12:51:58;5.40;99.90
29241;DHT22;16268;49.880;8.648;2023-02-15T12:54:35;5.20;99.90
29241;DHT22;16268;49.880;8.648;2023-02-15T12:57:32;5.10;99.90
29241;DHT22;16268;49.880;8.648;2023-02-15T13:02:46;5.30;99.90
29241;DHT22;16268;49.880;8.648;2023-02-15T13:05:31;5.40;99.90
29241;DHT22;16268;49.880;8.648;2023-02-15T13:08:03;5.40;99.90
29241;DHT22;16268;49.880;8.648;2023-02-15T13:10:43;5.60;99.90
29241;DHT22;16268;49.880;8.648;2023-02-15T13:13:24;5.70;99.90
29241;DHT22;16268;49.880;8.648;2023-02-15T13:15:53;5.80;99.90
29241;DHT22;16268;49.880;8.648;2023-02-15T13:18:33;5.80;99.90
29241;DHT22;16268;49.880;8.648;2023-02-15T13:21:06;5.70;99.90
29241;DHT22;16268;49.880;8.648;2023-02-15T13:23:34;5.70;99.90
29241;DHT22;16268;49.880;8.648;2023-02-15T13:26:04;5.70;99.90
29241;DHT22;16268;49.880;8.648;2023-02-15T13:28:46;5.60;99.90
29241;DHT22;16268;49.880;8.648;2023-02-15T13:31:15;5.70;99.90
29241;DHT22;16268;49.880;8.648;2023-02-15T13:34:12;5.70;99.90
29241;DHT22;16268;49.880;8.648;2023-02-15T13:36:57;5.50;99.90
29241;DHT22;16268;49.880;8.648;2023-02-15T13:39:38;5.50;99.90
29241;DHT22;16268;49.880;8.648;2023-02-15T13:53:50;5.70;99.90
29241;DHT22;16268;49.880;8.648;2023-02-15T13:56:25;5.90;99.90
29241;DHT22;16268;49.880;8.648;2023-02-15T13:59:06;6.20;99.90
29241;DHT22;16268;49.880;8.648;2023-02-15T14:01:58;6.30;99.90
29241;DHT22;16268;49.880;8.648;2023-02-15T14:12:37;6.40;99.90
29241;DHT22;16268;49.880;8.648;2023-02-15T14:20:24;5.90;99.90
29241;DHT22;16268;49.880;8.648;2023-02-15T14:23:30;5.90;99.90
29241;DHT22;16268;49.880;8.648;2023-02-15T14:26:21;6.20;99.90
29241;DHT22;16268;49.880;8.648;2023-02-15T14:29:15;6.40;99.90
29241;DHT22;16268;49.880;8.648;2023-02-15T14:31:46;6.40;99.90
29241;DHT22;16268;49.880;8.648;2023-02-15T14:34:44;6.20;99.90
29241;DHT22;16268;49.880;8.648;2023-02-15T14:37:12;6.20;99.90
29241;DHT22;16268;49.880;8.648;2023-02-15T14:40:19;6.10;99.90
29241;DHT22;16268;49.880;8.648;2023-02-15T14:48:25;6.40;99.90
29241;DHT22;16268;49.880;8.648;2023-02-15T14:50:55;6.30;99.90
29241;DHT22;16268;49.880;8.648;2023-02-15T14:58:37;6.10;99.90
29241;DHT22;16268;49.880;8.648;2023-02-15T15:01:08;5.90;99.90
29241;DHT22;16268;49.880;8.648;2023-02-15T15:03:34;5.70;99.90
29241;DHT22;16268;49.880;8.648;2023-02-15T15:06:03;5.60;99.90
29241;DHT22;16268;49.880;8.648;2023-02-15T15:08:34;5.60;99.90
29241;DHT22;16268;49.880;8.648;2023-02-15T15:13:59;5.80;99.90
29241;DHT22;16268;49.880;8.648;2023-02-15T15:19:01;5.90;99.90
29241;DHT22;16268;49.880;8.648;2023-02-15T15:41:08;5.40;99.90
29241;DHT22;16268;49.880;8.648;2023-02-15T15:49:32;5.20;99.90
29241;DHT22;16268;49.880;8.648;2023-02-15T15:52:03;5.20;99.90
29241;DHT22;16268;49.880;8.648;2023-02-15T15:54:34;5.10;99.90
29241;DHT22;16268;49.880;8.648;2023-02-15T15:57:04;5.10;99.90
29241;DHT22;16268;49.880;8.648;2023-02-15T15:59:33;5.10;99.90
29241;DHT22;16268;49.880;8.648;2023-02-15T16:02:13;5.10;99.90
29241;DHT22;16268;49.880;8.648;2023-02-15T16:04:45;5.00;99.90
29241;DHT22;16268;49.880;8.648;2023-02-15T16:09:59;5.00;99.90
29241;DHT22;16268;49.880;8.648;2023-02-15T16:12:28;4.90;99.90
29241;DHT22;16268;49.880;8.648;2023-02-15T16:14:54;4.90;99.90
29241;DHT22;16268;49.880;8.648;2023-02-15T16:17:24;4.90;99.90
29241;DHT22;16268;49.880;8.648;2023-02-15T16:19:51;4.80;99.90
29241;DHT22;16268;49.880;8.648;2023-02-15T16:22:24;4.70;99.90
29241;DHT22;16268;49.880;8.648;2023-02-15T16:27:46;4.70;99.90
29241;DHT22;16268;49.880;8.648;2023-02-15T16:33:12;4.50;99.90
29241;DHT22;16268;49.880;8.648;2023-02-15T16:36:01;4.50;99.90
29241;DHT22;16268;49.880;8.648;2023-02-15T16:41:12;4.30;99.90
29241;DHT22;16268;49.880;8.648;2023-02-15T16:43:40;4.40;99.90
29241;DHT22;16268;49.880;8.648;2023-02-15T16:46:11;4.50;99.90
29241;DHT22;16268;49.880;8.648;2023-02-15T16:48:43;4.50;99.90
29241;DHT22;16268;49.880;8.648;2023-02-15T16:51:18;4.50;99.90
29241;DHT22;16268;49.880;8.648;2023-02-15T16:53:47;4.50;99.90
29241;DHT22;16268;49.880;8.648;2023-02-15T16:56:13;4.50;99.90
29241;DHT22;16268;49.880;8.648;2023-02-15T16:58:44;4.40;99.90
29241;DHT22;16268;49.880;8.648;2023-02-15T17:01:14;4.40;99.90
29241;DHT22;16268;49.880;8.648;2023-02-15T17:03:41;4.40;99.90
29241;DHT22;16268;49.880;8.648;2023-02-15T17:06:26;4.30;99.90
29241;DHT22;16268;49.880;8.648;2023-02-15T17:08:53;4.20;99.90
29241;DHT22;16268;49.880;8.648;2023-02-15T17:16:43;4.20;99.90
29241;DHT22;16268;49.880;8.648;2023-02-15T17:19:29;4.20;99.90
29241;DHT22;16268;49.880;8.648;2023-02-15T17:22:01;4.30;99.90
29241;DHT22;16268;49.880;8.648;2023-02-15T17:24:37;4.40;99.90
29241;DHT22;16268;49.880;8.648;2023-02-15T17:29:40;4.40;99.90
29241;DHT22;16268;49.880;8.648;2023-02-15T17:32:17;4.40;99.90
29241;DHT22;16268;49.880;8.648;2023-02-15T17:35:14;4.40;99.90
29241;DHT22;16268;49.880;8.648;2023-02-15T17:37:44;4.40;99.90
29241;DHT22;16268;49.880;8.648;2023-02-15T17:40:40;4.40;99.90
29241;DHT22;16268;49.880;8.648;2023-02-15T17:43:05;4.30;99.90
29241;DHT22;16268;49.880;8.648;2023-02-15T17:45:38;4.30;99.90
29241;DHT22;16268;49.880;8.648;2023-02-15T17:48:05;4.30;99.90
29241;DHT22;16268;49.880;8.648;2023-02-15T17:50:32;4.30;99.90
29241;DHT22;16268;49.880;8.648;2023-02-15T17:52:58;4.30;99.90
29241;DHT22;16268;49.880;8.648;2023-02-15T17:55:26;4.30;99.90
29241;DHT22;16268;49.880;8.648;2023-02-15T17:58:15;4.20;99.90
29241;DHT22;16268;49.880;8.648;2023-02-15T18:00:45;4.20;99.90
29241;DHT22;16268;49.880;8.648;2023-02-15T18:03:47;4.10;99.90
29241;DHT22;16268;49.880;8.648;2023-02-15T18:06:33;4.10;99.90
29241;DHT22;16268;49.880;8.648;2023-02-15T18:09:20;4.10;99.90
29241;DHT22;16268;49.880;8.648;2023-02-15T18:12:22;4.20;99.90
29241;DHT22;16268;49.880;8.648;2023-02-15T18:14:49;4.20;99.90
29241;DHT22;16268;49.880;8.648;2023-02-15T18:17:15;4.10;99.90
29241;DHT22;16268;49.880;8.648;2023-02-15T18:19:43;4.10;99.90
29241;DHT22;16268;49.880;8.648;2023-02-15T18:22:15;4.10;99.90
29241;DHT22;16268;49.880;8.648;2023-02-15T18:24:41;4.10;99.90
29241;DHT22;16268;49.880;8.648;2023-02-15T18:27:09;4.10;99.90
29241;DHT22;16268;49.880;8.648;2023-02-15T18:29:35;4.10;99.90
29241;DHT22;16268;49.880;8.648;2023-02-15T18:32:00;4.20;99.90
29241;DHT22;16268;49.880;8.648;2023-02-15T18:34:37;4.30;99.90
29241;DHT22;16268;49.880;8.648;2023-02-15T18:37:06;4.20;99.90
29241;DHT22;16268;49.880;8.648;2023-02-15T18:39:40;4.20;99.90
29241;DHT22;16268;49.880;8.648;2023-02-15T18:42:31;4.10;99.90
29241;DHT22;16268;49.880;8.648;2023-02-15T18:45:00;4.10;99.90
29241;DHT22;16268;49.880;8.648;2023-02-15T18:47:28;3.90;99.90
29241;DHT22;16268;49.880;8.648;2023-02-15T18:49:54;3.90;99.90
29241;DHT22;16268;49.880;8.648;2023-02-15T18:52:22;3.90;99.90
29241;DHT22;16268;49.880;8.648;2023-02-15T18:54:52;3.80;99.90